Time;durP1;ratioP1;P1;durP2;ratioP2;P2;SDS_P1;SDS_P2;PMS_P1;PMS_P2;Temp;Humidity;BMP_temperature;BMP_pressure;BME280_temperature;BME280_humidity;BME280_pressure;Samples;Min_cycle;Max_cycle;Signal;HPM_P1;HPM_P2
2022/04/04 00:01:54;;;;;;;;;;;;;;;-145.06;0.00;60892.56;4911160;28;19916;-89
2022/04/04 00:04:33;;;;;;;;;;;;;;;-145.06;0.00;60892.56;4904521;28;20345;-88
2022/04/04 00:07:12;;;;;;;;;;;;;;;-145.06;0.00;60892.56;4893140;28;19959;-89
2022/04/04 00:09:51;;;;;;;;;;;;;;;-145.06;0.00;60892.56;4894023;28;19916;-89
2022/04/04 00:12:31;;;;;;;;;;;;;;;-145.06;0.00;60892.56;4895230;28;19959;-88
2022/04/04 00:15:09;;;;;;;;;;;;;;;-145.06;0.00;60892.56;4887282;28;20353;-89
2022/04/04 00:17:48;;;;;;;;;;;;;;;-145.06;0.00;60892.56;4898605;28;19920;-89
2022/04/04 00:20:28;;;;;;;;;;;;;;;-145.06;0.00;60892.56;4913926;28;19920;-90
2022/04/04 00:23:12;;;;;;;;;;;;;;;-145.06;0.00;60892.56;4892673;28;20362;-88
2022/04/04 00:25:51;;;;;;;;;;;;;;;-145.06;0.00;60892.56;4897126;28;19967;-88
2022/04/04 00:28:31;;;;;;;;;;;;;;;-145.06;0.00;60892.56;4898877;28;20342;-88
2022/04/04 00:31:10;;;;;;;;;;;;;;;-145.06;0.00;60892.56;4894735;28;20351;-88
2022/04/04 00:33:49;;;;;;;;;;;;;;;-145.06;0.00;60892.56;4889471;28;19952;-89
2022/04/04 00:36:27;;;;;;;;;;;;;;;-145.06;0.00;60892.56;4894773;28;20512;-89
2022/04/04 00:39:07;;;;;;;;;;;;;;;-145.06;0.00;60892.56;4888628;28;20290;-88
2022/04/04 00:41:47;;;;;;;;;;;;;;;-145.06;0.00;60892.56;4897500;28;20481;-90
2022/04/04 00:44:25;;;;;;;;;;;;;;;-145.06;0.00;60892.56;4901714;28;19916;-88
2022/04/04 00:47:04;;;;;;;;;;;;;;;-145.06;0.00;60892.56;4927281;28;19998;-89
2022/04/04 00:49:43;;;;;;;;;;;;;;;-145.06;0.00;60892.56;4904134;28;19916;-89
2022/04/04 00:52:22;;;;;;;;;;;;;;;-145.06;0.00;60892.56;4898241;28;19924;-90
2022/04/04 00:55:01;;;;;;;;;;;;;;;-145.06;0.00;60892.56;4891891;28;20579;-90
2022/04/04 00:57:40;;;;;;;;;;;;;;;-145.06;0.00;60892.56;4892929;28;20271;-89
2022/04/04 01:00:20;;;;;;;;;;;;;;;-145.06;0.00;60892.56;4883257;28;19916;-88
2022/04/04 01:02:59;;;;;;;;;;;;;;;-145.06;0.00;60892.56;4898679;28;19950;-90
2022/04/04 01:05:38;;;;;;;;;;;;;;;-145.06;0.00;60892.56;4892786;28;19916;-89
2022/04/04 01:08:16;;;;;;;;;;;;;;;-145.06;0.00;60892.56;4908724;28;19916;-88
2022/04/04 01:10:55;;;;;;;;;;;;;;;-145.06;0.00;60892.56;4908204;28;19916;-88
2022/04/04 01:13:34;;;;;;;;;;;;;;;-145.06;0.00;60892.56;4900836;28;19916;-90
2022/04/04 01:16:14;;;;;;;;;;;;;;;-145.06;0.00;60892.56;4898633;28;20270;-89
2022/04/04 01:18:52;;;;;;;;;;;;;;;-145.06;0.00;60892.56;4909073;28;19987;-89
2022/04/04 01:21:31;;;;;;;;;;;;;;;-145.06;0.00;60892.56;4899052;28;19916;-89
2022/04/04 01:24:15;;;;;;;;;;;;;;;-145.06;0.00;60892.56;4898664;28;20495;-89
2022/04/04 01:26:54;;;;;;;;;;;;;;;-145.06;0.00;60892.56;4897045;28;20571;-89
2022/04/04 01:29:34;;;;;;;;;;;;;;;-145.06;0.00;60892.56;4906273;28;20006;-90
2022/04/04 01:32:13;;;;;;;;;;;;;;;-145.06;0.00;60892.56;4895917;28;19920;-88
2022/04/04 01:34:52;;;;;;;;;;;;;;;-145.06;0.00;60892.56;4890825;28;20459;-90
2022/04/04 01:37:31;;;;;;;;;;;;;;;-145.06;0.00;60892.56;4901024;28;20602;-87
2022/04/04 01:40:10;;;;;;;;;;;;;;;-145.06;0.00;60892.56;4895690;28;20259;-88
2022/04/04 01:42:50;;;;;;;;;;;;;;;-145.06;0.00;60892.56;4899006;28;19916;-88
2022/04/04 01:48:27;;;;;;;;;;;;;;;-145.06;0.00;60892.56;4916815;28;20350;-86
2022/04/04 01:51:06;;;;;;;;;;;;;;;-145.06;0.00;60892.56;4895701;28;20010;-86
2022/04/04 01:53:45;;;;;;;;;;;;;;;-145.06;0.00;60892.56;4903357;28;20010;-89
2022/04/04 01:56:24;;;;;;;;;;;;;;;-145.06;0.00;60892.56;4894925;28;19928;-87
2022/04/04 01:59:07;;;;;;;;;;;;;;;-145.06;0.00;60892.56;4891661;28;20345;-88
2022/04/04 02:01:45;;;;;;;;;;;;;;;-145.06;0.00;60892.56;4901918;28;19919;-88
2022/04/04 02:04:24;;;;;;;;;;;;;;;-145.06;0.00;60892.56;4894589;28;19921;-87
2022/04/04 02:07:05;;;;;;;;;;;;;;;-145.06;0.00;60892.56;4899037;28;19916;-88
2022/04/04 02:09:44;;;;;;;;;;;;;;;-145.06;0.00;60892.56;4907239;28;19920;-87
2022/04/04 02:12:23;;;;;;;;;;;;;;;-145.06;0.00;60892.56;4904184;28;19916;-88
2022/04/04 02:15:02;;;;;;;;;;;;;;;-145.06;0.00;60892.56;4913113;28;19924;-87
2022/04/04 02:17:41;;;;;;;;;;;;;;;-145.06;0.00;60892.56;4902162;28;19921;-87
2022/04/04 02:20:21;;;;;;;;;;;;;;;-145.06;0.00;60892.56;4905545;28;20259;-89
2022/04/04 02:23:00;;;;;;;;;;;;;;;-145.06;0.00;60892.56;4891828;28;19924;-88
2022/04/04 02:25:39;;;;;;;;;;;;;;;-145.06;0.00;60892.56;4895196;28;20006;-87
2022/04/04 02:28:18;;;;;;;;;;;;;;;-145.06;0.00;60892.56;4922445;28;19917;-86
2022/04/04 02:30:57;;;;;;;;;;;;;;;-145.06;0.00;60892.56;4892617;28;19916;-88
2022/04/04 02:33:36;;;;;;;;;;;;;;;-145.06;0.00;60892.56;4896926;28;19920;-87
2022/04/04 02:36:15;;;;;;;;;;;;;;;-145.06;0.00;60892.56;4883464;28;19925;-87
2022/04/04 02:38:54;;;;;;;;;;;;;;;-145.06;0.00;60892.56;4898760;28;19916;-87
2022/04/04 02:41:33;;;;;;;;;;;;;;;-145.06;0.00;60892.56;4900029;28;19916;-88
2022/04/04 02:44:12;;;;;;;;;;;;;;;-145.06;0.00;60892.56;4898654;28;20394;-87
2022/04/04 02:46:51;;;;;;;;;;;;;;;-145.06;0.00;60892.56;4891264;28;20003;-87
2022/04/04 02:49:30;;;;;;;;;;;;;;;-145.06;0.00;60892.56;4894769;28;20362;-87
2022/04/04 02:52:09;;;;;;;;;;;;;;;-145.06;0.00;60892.56;4895136;28;19916;-89
2022/04/04 02:54:48;;;;;;;;;;;;;;;-145.06;0.00;60892.56;4884810;28;20544;-88
2022/04/04 02:57:27;;;;;;;;;;;;;;;-145.06;0.00;60892.56;4926031;28;19916;-88
2022/04/04 03:00:06;;;;;;;;;;;;;;;-145.06;0.00;60892.56;4897359;28;19916;-88
2022/04/04 03:02:48;;;;;;;;;;;;;;;-145.06;0.00;60892.56;4894906;28;19920;-88
2022/04/04 03:05:27;;;;;;;;;;;;;;;-145.06;0.00;60892.56;4912676;28;19916;-88
2022/04/04 03:08:06;;;;;;;;;;;;;;;-145.06;0.00;60892.56;4902476;28;19920;-87
2022/04/04 03:10:45;;;;;;;;;;;;;;;-145.06;0.00;60892.56;4909074;28;19912;-88
2022/04/04 03:13:25;;;;;;;;;;;;;;;-145.06;0.00;60892.56;4913848;28;19933;-88
2022/04/04 03:16:04;;;;;;;;;;;;;;;-145.06;0.00;60892.56;4906902;28;20255;-88
2022/04/04 03:18:42;;;;;;;;;;;;;;;-145.06;0.00;60892.56;4895335;28;19920;-87
2022/04/04 03:21:22;;;;;;;;;;;;;;;-145.06;0.00;60892.56;4899115;28;19916;-87
2022/04/04 03:24:01;;;;;;;;;;;;;;;-145.06;0.00;60892.56;4891091;28;19917;-88
2022/04/04 03:26:40;;;;;;;;;;;;;;;-145.06;0.00;60892.56;4889484;28;20354;-88
2022/04/04 03:29:19;;;;;;;;;;;;;;;-145.06;0.00;60892.56;4891229;28;21270;-88
2022/04/04 03:31:58;;;;;;;;;;;;;;;-145.06;0.00;60892.56;4899886;28;20358;-88
2022/04/04 03:34:38;;;;;;;;;;;;;;;-145.06;0.00;60892.56;4895837;28;19916;-88
2022/04/04 03:37:17;;;;;;;;;;;;;;;-145.06;0.00;60892.56;4895068;28;19916;-87
2022/04/04 03:39:56;;;;;;;;;;;;;;;-145.06;0.00;60892.56;4902650;28;19920;-88
2022/04/04 03:42:37;;;;;;;;;;;;;;;-145.06;0.00;60892.56;4889755;28;20369;-88
2022/04/04 03:45:16;;;;;;;;;;;;;;;-145.06;0.00;60892.56;4914318;28;20313;-88
2022/04/04 03:47:56;;;;;;;;;;;;;;;-145.06;0.00;60892.56;4892036;28;19920;-88
2022/04/04 03:50:35;;;;;;;;;;;;;;;-145.06;0.00;60892.56;4892283;28;20246;-89
2022/04/04 03:53:14;;;;;;;;;;;;;;;-145.06;0.00;60892.56;4925933;28;19916;-87
2022/04/04 03:55:53;;;;;;;;;;;;;;;-145.06;0.00;60892.56;4915165;28;19925;-88
2022/04/04 03:58:32;;;;;;;;;;;;;;;-145.06;0.00;60892.56;4904261;28;19916;-87
2022/04/04 04:01:11;;;;;;;;;;;;;;;-145.06;0.00;60892.56;4892820;28;19939;-86
2022/04/04 04:03:50;;;;;;;;;;;;;;;-145.06;0.00;60892.56;4923960;28;19916;-87
2022/04/04 04:06:31;;;;;;;;;;;;;;;-145.06;0.00;60892.56;4900021;28;19916;-88
2022/04/04 04:09:11;;;;;;;;;;;;;;;-145.06;0.00;60892.56;4895362;28;19920;-88
2022/04/04 04:11:50;;;;;;;;;;;;;;;-145.06;0.00;60892.56;4899635;28;20262;-88
2022/04/04 04:14:29;;;;;;;;;;;;;;;-145.06;0.00;60892.56;4899586;28;19959;-88
2022/04/04 04:17:11;;;;;;;;;;;;;;;-145.06;0.00;60892.56;4910584;28;19924;-88
2022/04/04 04:20:25;;;;;;;;;;;;;;;-145.06;0.00;60892.56;4918928;28;19963;-88
2022/04/04 04:23:00;;;;;;;;;;;;;;;-145.06;0.00;60892.56;4912507;28;20266;-87
2022/04/04 04:25:39;;;;;;;;;;;;;;;-145.06;0.00;60892.56;4900121;28;19916;-87
2022/04/04 04:28:18;;;;;;;;;;;;;;;-145.06;0.00;60892.56;4908567;28;19916;-87
2022/04/04 04:30:57;;;;;;;;;;;;;;;-145.06;0.00;60892.56;4904917;28;19916;-88
2022/04/04 04:33:36;;;;;;;;;;;;;;;-145.06;0.00;60892.56;4911580;28;19925;-88
2022/04/04 04:36:15;;;;;;;;;;;;;;;-145.06;0.00;60892.56;4893854;28;19924;-88
2022/04/04 04:38:54;;;;;;;;;;;;;;;-145.06;0.00;60892.56;4899013;28;19924;-88
2022/04/04 04:41:33;;;;;;;;;;;;;;;-145.06;0.00;60892.56;4895950;28;19925;-87
2022/04/04 04:44:12;;;;;;;;;;;;;;;-145.06;0.00;60892.56;4900333;28;19916;-89
2022/04/04 04:46:52;;;;;;;;;;;;;;;-145.06;0.00;60892.56;4902150;28;19916;-88
2022/04/04 04:49:31;;;;;;;;;;;;;;;-145.06;0.00;60892.56;4925862;28;19916;-88
2022/04/04 04:52:11;;;;;;;;;;;;;;;-145.06;0.00;60892.56;4902505;28;19925;-90
2022/04/04 04:54:50;;;;;;;;;;;;;;;-145.06;0.00;60892.56;4897494;28;19920;-90
2022/04/04 04:57:29;;;;;;;;;;;;;;;-145.06;0.00;60892.56;4895678;28;19969;-90
2022/04/04 05:00:10;;;;;;;;;;;;;;;-145.06;0.00;60892.56;4899436;28;19951;-90
2022/04/04 05:03:24;;;;;;;;;;;;;;;-145.06;0.00;60892.56;4915876;28;19916;-90
2022/04/04 05:05:49;;;;;;;;;;;;;;;-145.06;0.00;60892.56;4916461;28;19920;-89
2022/04/04 05:08:29;;;;;;;;;;;;;;;-145.06;0.00;60892.56;4902193;28;19971;-89
2022/04/04 05:11:08;;;;;;;;;;;;;;;-145.06;0.00;60892.56;4896775;28;19963;-90
2022/04/04 05:13:47;;;;;;;;;;;;;;;-145.06;0.00;60892.56;4905683;28;19921;-89
2022/04/04 05:16:28;;;;;;;;;;;;;;;-145.06;0.00;60892.56;4891481;28;19920;-89
2022/04/04 05:19:07;;;;;;;;;;;;;;;-145.06;0.00;60892.56;4900315;28;19951;-90
2022/04/04 05:21:46;;;;;;;;;;;;;;;-145.06;0.00;60892.56;4900226;28;20254;-91
2022/04/04 05:24:25;;;;;;;;;;;;;;;-145.06;0.00;60892.56;4919598;28;19920;-89
2022/04/04 05:27:04;;;;;;;;;;;;;;;-145.06;0.00;60892.56;4918798;28;19912;-90
2022/04/04 05:29:43;;;;;;;;;;;;;;;-145.06;0.00;60892.56;4904566;28;20361;-89
2022/04/04 05:32:22;;;;;;;;;;;;;;;-145.06;0.00;60892.56;4882638;28;20354;-90
2022/04/04 05:35:01;;;;;;;;;;;;;;;-145.06;0.00;60892.56;4905546;28;19920;-91
2022/04/04 05:37:41;;;;;;;;;;;;;;;-145.06;0.00;60892.56;4882393;28;19932;-90
2022/04/04 05:40:24;;;;;;;;;;;;;;;-145.06;0.00;60892.56;4896903;28;20251;-90
2022/04/04 05:43:03;;;;;;;;;;;;;;;-145.06;0.00;60892.56;4897298;28;20266;-90
2022/04/04 05:45:42;;;;;;;;;;;;;;;-145.06;0.00;60892.56;4898712;28;19912;-89
2022/04/04 05:48:23;;;;;;;;;;;;;;;-145.06;0.00;60892.56;4898101;28;19916;-90
2022/04/04 05:51:02;;;;;;;;;;;;;;;-145.06;0.00;60892.56;4889150;28;20349;-90
2022/04/04 05:53:41;;;;;;;;;;;;;;;-145.06;0.00;60892.56;4916683;28;20251;-89
2022/04/04 05:56:21;;;;;;;;;;;;;;;-145.06;0.00;60892.56;4897341;28;19920;-90
2022/04/04 05:59:00;;;;;;;;;;;;;;;-145.06;0.00;60892.56;4913160;28;19924;-89
2022/04/04 06:01:39;;;;;;;;;;;;;;;-145.06;0.00;60892.56;4900850;28;19920;-89
2022/04/04 06:04:18;;;;;;;;;;;;;;;-145.06;0.00;60892.56;4900295;28;19964;-90
2022/04/04 06:06:57;;;;;;;;;;;;;;;-145.06;0.00;60892.56;4899555;28;20386;-89
2022/04/04 06:09:36;;;;;;;;;;;;;;;-145.06;0.00;60892.56;4900467;28;19959;-89
2022/04/04 06:12:15;;;;;;;;;;;;;;;-145.06;0.00;60892.56;4895919;28;19916;-90
2022/04/04 06:14:55;;;;;;;;;;;;;;;-145.06;0.00;60892.56;4901925;28;19921;-90
2022/04/04 06:17:33;;;;;;;;;;;;;;;-145.06;0.00;60892.56;4898540;28;19916;-90
2022/04/04 06:20:13;;;;;;;;;;;;;;;-145.06;0.00;60892.56;4918110;28;20278;-90
2022/04/04 06:22:52;;;;;;;;;;;;;;;21.08;0.00;60892.56;4902137;28;19916;-90
2022/04/04 06:25:31;;;;;;;;;;;;;;;-145.06;0.00;60892.56;4922173;28;19912;-89
2022/04/04 06:28:10;;;;;;;;;;;;;;;-145.06;0.00;60892.56;4913604;28;19912;-91
2022/04/04 06:30:49;;;;;;;;;;;;;;;-145.06;0.00;60892.56;4890465;28;19916;-90
2022/04/04 06:33:28;;;;;;;;;;;;;;;-145.06;0.00;60892.56;4917134;28;20358;-88
2022/04/04 06:36:07;;;;;;;;;;;;;;;-145.06;0.00;60892.56;4897540;28;19920;-90
2022/04/04 06:38:46;;;;;;;;;;;;;;;-145.06;0.00;60892.56;4924770;28;19916;-91
2022/04/04 06:41:25;;;;;;;;;;;;;;;-145.06;0.00;60892.56;4921729;28;19908;-89
2022/04/04 06:44:04;;;;;;;;;;;;;;;-145.06;0.00;60892.56;4883703;28;19920;-90
2022/04/04 06:46:43;;;;;;;;;;;;;;;-145.06;0.00;60892.56;4886773;28;19931;-90
2022/04/04 06:49:22;;;;;;;;;;;;;;;-145.06;0.00;60892.56;4914991;28;20385;-90
2022/04/04 06:52:01;;;;;;;;;;;;;;;-145.06;0.00;60892.56;4898708;28;19963;-90
2022/04/04 06:54:41;;;;;;;;;;;;;;;-145.06;0.00;60892.56;4901943;28;19916;-89
2022/04/04 06:57:20;;;;;;;;;;;;;;;-145.06;0.00;60892.56;4897618;28;19916;-90
2022/04/04 06:59:59;;;;;;;;;;;;;;;-145.06;0.00;60892.56;4910832;28;19916;-89
2022/04/04 07:02:39;;;;;;;;;;;;;;;-145.06;0.00;60892.56;4916958;28;19912;-90
2022/04/04 07:05:18;;;;;;;;;;;;;;;-145.06;0.00;60892.56;4901974;28;19999;-90
2022/04/04 07:07:57;;;;;;;;;;;;;;;-145.06;0.00;60892.56;4904437;28;19916;-90
2022/04/04 07:10:36;;;;;;;;;;;;;;;-145.06;0.00;60892.56;4882216;28;19916;-89
2022/04/04 07:13:15;;;;;;;;;;;;;;;-145.06;0.00;60892.56;4887213;28;19920;-89
2022/04/04 07:15:53;;;;;;;;;;;;;;;-145.06;0.00;60892.56;4901740;28;20338;-91
2022/04/04 07:18:32;;;;;;;;;;;;;;;-145.06;0.00;60892.56;4891504;28;19921;-90
2022/04/04 07:21:11;;;;;;;;;;;;;;;-145.06;0.00;60892.56;4932397;28;19916;-91
2022/04/04 07:23:50;;;;;;;;;;;;;;;-145.06;0.00;60892.56;4901615;28;19916;-90
2022/04/04 07:26:29;;;;;;;;;;;;;;;-145.06;0.00;60892.56;4895706;28;20247;-89
2022/04/04 07:29:08;;;;;;;;;;;;;;;-145.06;0.00;60892.56;4916126;28;19916;-89
2022/04/04 07:31:47;;;;;;;;;;;;;;;-145.06;0.00;60892.56;4920109;28;20619;-89
2022/04/04 07:34:26;;;;;;;;;;;;;;;-145.06;0.00;60892.56;4917996;28;19916;-90
2022/04/04 07:37:05;;;;;;;;;;;;;;;-145.06;0.00;60892.56;4911226;28;20266;-90
2022/04/04 07:39:44;;;;;;;;;;;;;;;-145.06;0.00;60892.56;4899450;28;19916;-90
2022/04/04 07:42:23;;;;;;;;;;;;;;;-145.06;0.00;60892.56;4901394;28;19916;-90
2022/04/04 07:45:03;;;;;;;;;;;;;;;-145.06;0.00;60892.56;4900924;28;19916;-90
2022/04/04 07:47:42;;;;;;;;;;;;;;;-145.06;0.00;60892.56;4898031;28;19920;-90
2022/04/04 07:50:21;;;;;;;;;;;;;;;-145.06;0.00;60892.56;4901345;28;19920;-90
2022/04/04 07:53:00;;;;;;;;;;;;;;;-145.06;0.00;60892.56;4906022;28;20365;-90
2022/04/04 07:55:40;;;;;;;;;;;;;;;-145.06;0.00;60892.56;4883086;28;19916;-90
2022/04/04 07:58:19;;;;;;;;;;;;;;;-145.06;0.00;60892.56;4907624;28;19917;-90
2022/04/04 08:00:59;;;;;;;;;;;;;;;-145.06;0.00;60892.56;4904139;28;19916;-87
2022/04/04 08:03:38;;;;;;;;;;;;;;;-145.06;0.00;60892.56;4900662;28;19931;-88
2022/04/04 08:06:17;;;;;;;;;;;;;;;-145.06;0.00;60892.56;4897794;28;19916;-88
2022/04/04 08:08:56;;;;;;;;;;;;;;;-145.06;0.00;60892.56;4918885;28;20061;-87
2022/04/04 08:11:35;;;;;;;;;;;;;;;-145.06;0.00;60892.56;4899986;28;19916;-89
2022/04/04 08:14:14;;;;;;;;;;;;;;;-145.06;0.00;60892.56;4900787;28;19916;-87
2022/04/04 08:16:53;;;;;;;;;;;;;;;-145.06;0.00;60892.56;4881485;28;19924;-88
2022/04/04 08:19:32;;;;;;;;;;;;;;;-145.06;0.00;60892.56;4898961;28;20247;-88
2022/04/04 08:22:11;;;;;;;;;;;;;;;-145.06;0.00;60892.56;4908793;28;19912;-88
2022/04/04 08:24:50;;;;;;;;;;;;;;;-145.06;0.00;60892.56;4898451;28;19912;-87
2022/04/04 08:27:29;;;;;;;;;;;;;;;-145.06;0.00;60892.56;4897600;28;19912;-87
2022/04/04 08:30:10;;;;;;;;;;;;;;;-145.06;0.00;60892.56;4913115;28;19920;-88
2022/04/04 08:32:49;;;;;;;;;;;;;;;-145.06;0.00;60892.56;4893414;28;19920;-86
2022/04/04 08:35:28;;;;;;;;;;;;;;;-145.06;0.00;60892.56;4899868;28;19924;-88
2022/04/04 08:38:09;;;;;;;;;;;;;;;187.52;0.00;60892.56;4899425;28;20706;-87
2022/04/04 08:40:49;;;;;;;;;;;;;;;-145.06;0.00;60892.56;4912245;28;20018;-87
2022/04/04 08:43:33;;;;;;;;;;;;;;;-145.06;0.00;60892.56;4895717;28;19999;-87
2022/04/04 08:46:15;;;;;;;;;;;;;;;-145.06;0.00;60892.56;4883466;28;19913;-88
2022/04/04 08:48:57;;;;;;;;;;;;;;;-145.06;0.00;60892.56;4891677;28;19916;-88
2022/04/04 08:51:36;;;;;;;;;;;;;;;-145.06;0.00;60892.56;4908060;28;19963;-87
2022/04/04 08:54:15;;;;;;;;;;;;;;;-145.06;0.00;60892.56;4918331;28;19916;-89
2022/04/04 08:56:54;;;;;;;;;;;;;;;-145.06;0.00;60892.56;4898867;28;19916;-87
2022/04/04 08:59:33;;;;;;;;;;;;;;;-145.06;0.00;60892.56;4888198;28;19916;-87
2022/04/04 09:02:12;;;;;;;;;;;;;;;-145.06;0.00;60892.56;4887452;28;20015;-88
2022/04/04 09:04:51;;;;;;;;;;;;;;;-145.06;0.00;60892.56;4916827;28;19999;-87
2022/04/04 09:07:30;;;;;;;;;;;;;;;-145.06;0.00;60892.56;4919943;28;19916;-88
2022/04/04 09:10:12;;;;;;;;;;;;;;;-145.06;0.00;60892.56;4903766;28;20254;-87
2022/04/04 09:12:51;;;;;;;;;;;;;;;-145.06;0.00;60892.56;4897841;28;20274;-89
2022/04/04 09:15:49;;;;;;;;;;;;;;;-145.06;0.00;60892.56;4898059;28;19971;-88
2022/04/04 09:18:49;;;;;;;;;;;;;;;-145.06;0.00;60892.56;4912925;28;19916;-88
2022/04/04 09:21:31;;;;;;;;;;;;;;;-145.06;0.00;60892.56;4912277;28;19936;-88
2022/04/04 09:24:11;;;;;;;;;;;;;;;-145.06;0.00;60892.56;4899351;28;19912;-88
2022/04/04 09:26:51;;;;;;;;;;;;;;;-145.06;0.00;60892.56;4919927;28;19916;-87
2022/04/04 09:29:35;;;;;;;;;;;;;;;-145.06;0.00;60892.56;4913444;28;20637;-89
2022/04/04 09:32:17;;;;;;;;;;;;;;;-145.06;0.00;60892.56;4899735;28;19935;-88
2022/04/04 09:35:10;;;;;;;;;;;;;;;-145.06;0.00;60892.56;4916908;28;19924;-87
2022/04/04 09:37:50;;;;;;;;;;;;;;;-145.06;0.00;60892.56;4901944;28;19917;-89
2022/04/04 09:40:32;;;;;;;;;;;;;;;-145.06;0.00;60892.56;4927201;28;20262;-88
2022/04/04 09:43:11;;;;;;;;;;;;;;;-145.06;0.00;60892.56;4917977;28;20608;-88
2022/04/04 09:46:08;;;;;;;;;;;;;;;-145.06;0.00;60892.56;4898133;28;19912;-88
2022/04/04 09:49:06;;;;;;;;;;;;;;;-145.06;0.00;60892.56;4892434;28;19952;-88
2022/04/04 09:51:47;;;;;;;;;;;;;;;-145.06;0.00;60892.56;4895631;28;19912;-89
2022/04/04 09:54:30;;;;;;;;;;;;;;;-145.06;0.00;60892.56;4902335;28;19912;-88
2022/04/04 09:57:13;;;;;;;;;;;;;;;-145.06;0.00;60892.56;4907624;28;19916;-88
2022/04/04 09:59:53;;;;;;;;;;;;;;;7.92;0.00;60892.56;4937555;28;19924;-88
2022/04/04 10:02:32;;;;;;;;;;;;;;;8.08;0.00;60892.56;4903895;28;20350;-88
2022/04/04 10:05:11;;;;;;;;;;;;;;;7.79;0.00;60892.56;4887554;28;19916;-88
2022/04/04 10:07:51;;;;;;;;;;;;;;;7.81;0.00;60892.56;4920545;28;19916;-89
2022/04/04 10:10:31;;;;;;;;;;;;;;;21.08;0.00;60892.56;4927196;28;19896;-89
2022/04/04 10:13:14;;;;;;;;;;;;;;;8.08;0.00;60892.56;4902562;28;20010;-89
2022/04/04 10:15:53;;;;;;;;;;;;;;;-145.06;0.00;60892.56;4902011;28;19919;-88
2022/04/04 10:18:32;;;;;;;;;;;;;;;-145.06;0.00;60892.56;4901682;28;20398;-89
2022/04/04 10:21:11;;;;;;;;;;;;;;;-145.06;0.00;60892.56;4889180;28;20002;-88
2022/04/04 10:23:52;;;;;;;;;;;;;;;-145.06;0.00;60892.56;4896942;28;19913;-87
2022/04/04 10:26:33;;;;;;;;;;;;;;;-145.06;0.00;60892.56;4906279;28;19916;-88
2022/04/04 10:29:12;;;;;;;;;;;;;;;-145.06;0.00;60892.56;4914802;28;19919;-88
2022/04/04 10:31:53;;;;;;;;;;;;;;;-145.06;0.00;60892.56;4896794;28;19916;-89
2022/04/04 10:34:40;;;;;;;;;;;;;;;-145.06;0.00;60892.56;4909141;28;19920;-87
2022/04/04 10:37:21;;;;;;;;;;;;;;;-145.06;0.00;60892.56;4893131;28;19924;-88
2022/04/04 10:40:16;;;;;;;;;;;;;;;-145.06;0.00;60892.56;4907868;28;20010;-89
2022/04/04 10:43:13;;;;;;;;;;;;;;;-145.06;0.00;60892.56;4904139;28;19916;-88
2022/04/04 10:45:56;;;;;;;;;;;;;;;-145.06;0.00;60892.56;4882445;28;20389;-89
2022/04/04 10:48:39;;;;;;;;;;;;;;;-145.06;0.00;60892.56;4882422;28;19917;-89
2022/04/04 10:51:19;;;;;;;;;;;;;;;-145.06;0.00;60892.56;4907410;28;20007;-89
2022/04/04 10:54:01;;;;;;;;;;;;;;;-145.06;0.00;60892.56;4882235;28;19913;-88
2022/04/04 10:56:41;;;;;;;;;;;;;;;-145.06;0.00;60892.56;4894029;28;19920;-88
2022/04/04 10:59:20;;;;;;;;;;;;;;;-145.06;0.00;60892.56;4904188;28;19920;-89
2022/04/04 11:02:01;;;;;;;;;;;;;;;-145.06;0.00;60892.56;4898842;28;19920;-89
2022/04/04 11:07:38;;;;;;;;;;;;;;;-145.06;0.00;60892.56;4904339;28;19916;-89
2022/04/04 11:10:36;;;;;;;;;;;;;;;-145.06;0.00;60892.56;4909141;28;19912;-88
2022/04/04 11:13:15;;;;;;;;;;;;;;;-145.06;0.00;60892.56;4918164;28;20473;-89
2022/04/04 11:15:55;;;;;;;;;;;;;;;-145.06;0.00;60892.56;4901367;28;20019;-87
2022/04/04 11:18:54;;;;;;;;;;;;;;;-145.06;0.00;60892.56;4899984;28;20003;-88
2022/04/04 11:21:40;;;;;;;;;;;;;;;-145.06;0.00;60892.56;4893076;28;19920;-88
2022/04/04 11:24:19;;;;;;;;;;;;;;;-145.06;0.00;60892.56;4900825;28;19913;-88
2022/04/04 11:26:58;;;;;;;;;;;;;;;-145.06;0.00;60892.56;4900708;28;19912;-88
2022/04/04 11:29:40;;;;;;;;;;;;;;;-145.06;0.00;60892.56;4904563;28;19967;-87
2022/04/04 11:32:23;;;;;;;;;;;;;;;-145.06;0.00;60892.56;4904478;28;19919;-88
2022/04/04 11:35:18;;;;;;;;;;;;;;;-145.06;0.00;60892.56;4916964;28;19928;-88
2022/04/04 11:37:59;;;;;;;;;;;;;;;-145.06;0.00;60892.56;4899414;28;19938;-88
2022/04/04 11:40:39;;;;;;;;;;;;;;;-145.06;0.00;60892.56;4900111;28;19920;-88
2022/04/04 11:43:19;;;;;;;;;;;;;;;-145.06;0.00;60892.56;4900355;28;19916;-87
2022/04/04 11:45:59;;;;;;;;;;;;;;;-145.06;0.00;60892.56;4901018;28;19912;-88
2022/04/04 11:48:47;;;;;;;;;;;;;;;-145.06;0.00;60892.56;4898561;28;19916;-88
2022/04/04 11:51:34;;;;;;;;;;;;;;;-145.06;0.00;60892.56;4899581;28;20420;-88
2022/04/04 11:54:13;;;;;;;;;;;;;;;-145.06;0.00;60892.56;4881442;28;19924;-88
2022/04/04 11:56:57;;;;;;;;;;;;;;;-145.06;0.00;60892.56;4885866;28;19920;-88
2022/04/04 11:59:40;;;;;;;;;;;;;;;-145.06;0.00;60892.56;4898002;28;19916;-88
2022/04/04 12:02:22;;;;;;;;;;;;;;;-145.06;0.00;60892.56;4899930;28;19920;-88
2022/04/04 12:05:02;;;;;;;;;;;;;;;-145.06;0.00;60892.56;4900098;28;20366;-88
2022/04/04 12:07:42;;;;;;;;;;;;;;;-145.06;0.00;60892.56;4895989;28;19913;-88
2022/04/04 12:10:30;;;;;;;;;;;;;;;-145.06;0.00;60892.56;4909034;28;19916;-87
2022/04/04 12:13:12;;;;;;;;;;;;;;;-145.06;0.00;60892.56;4922147;28;19916;-88
2022/04/04 12:15:51;;;;;;;;;;;;;;;-145.06;0.00;60892.56;4913348;28;19916;-87
2022/04/04 12:18:30;;;;;;;;;;;;;;;-145.06;0.00;60892.56;4899134;28;20313;-87
2022/04/04 12:21:10;;;;;;;;;;;;;;;-145.06;0.00;60892.56;4899434;28;20031;-86
2022/04/04 12:26:46;;;;;;;;;;;;;;;-145.06;0.00;60892.56;4914825;28;19919;-87
2022/04/04 12:29:25;;;;;;;;;;;;;;;-145.06;0.00;60892.56;4911820;28;19955;-86
2022/04/04 12:32:11;;;;;;;;;;;;;;;-145.06;0.00;60892.56;4901522;28;19920;-86
2022/04/04 12:35:01;;;;;;;;;;;;;;;-145.06;0.00;60892.56;4899172;28;19916;-86
2022/04/04 12:37:42;;;;;;;;;;;;;;;-145.06;0.00;60892.56;4921778;28;19916;-85
2022/04/04 12:40:25;;;;;;;;;;;;;;;-145.06;0.00;60892.56;4898899;28;19991;-84
2022/04/04 12:43:08;;;;;;;;;;;;;;;-145.06;0.00;60892.56;4897674;28;19998;-85
2022/04/04 12:45:47;;;;;;;;;;;;;;;6.73;0.00;60892.56;4918135;28;19916;-85
2022/04/04 12:48:52;;;;;;;;;;;;;;;-145.06;0.00;60892.56;4888196;28;20007;-85
2022/04/04 12:51:31;;;;;;;;;;;;;;;-145.06;0.00;60892.56;4898873;28;19920;-83
2022/04/04 12:54:22;;;;;;;;;;;;;;;-145.06;0.00;60892.56;4893191;28;19917;-85
2022/04/04 12:57:03;;;;;;;;;;;;;;;-145.06;0.00;60892.56;4886804;28;19920;-85
2022/04/04 12:59:53;;;;;;;;;;;;;;;-145.06;0.00;60892.56;4919672;28;20264;-85
2022/04/04 13:02:33;;;;;;;;;;;;;;;6.57;0.00;60892.56;4904721;28;19920;-85
2022/04/04 13:05:16;;;;;;;;;;;;;;;-145.06;0.00;60892.56;4915970;28;20003;-85
2022/04/04 13:07:56;;;;;;;;;;;;;;;-145.06;0.00;60892.56;4901067;28;20258;-85
2022/04/04 13:10:35;;;;;;;;;;;;;;;-145.06;0.00;60892.56;4914851;28;19920;-85
2022/04/04 13:13:16;;;;;;;;;;;;;;;-145.06;0.00;60892.56;4914644;28;19916;-84
2022/04/04 13:15:56;;;;;;;;;;;;;;;-145.06;0.00;60892.56;4906585;28;19920;-85
2022/04/04 13:18:34;;;;;;;;;;;;;;;-145.06;0.00;60892.56;4919431;28;19916;-86
2022/04/04 13:21:13;;;;;;;;;;;;;;;-145.06;0.00;60892.56;4901780;28;19920;-86
2022/04/04 13:23:52;;;;;;;;;;;;;;;-145.06;0.00;60892.56;4914598;28;19916;-86
2022/04/04 13:26:32;;;;;;;;;;;;;;;-145.06;0.00;60892.56;4902097;28;19916;-87
2022/04/04 13:29:10;;;;;;;;;;;;;;;-145.06;0.00;60892.56;4915993;28;19999;-86
2022/04/04 13:31:49;;;;;;;;;;;;;;;-145.06;0.00;60892.56;4897897;28;19921;-87
2022/04/04 13:34:28;;;;;;;;;;;;;;;-145.06;0.00;60892.56;4892071;28;20405;-86
2022/04/04 13:37:07;;;;;;;;;;;;;;;-145.06;0.00;60892.56;4897343;28;19924;-86
2022/04/04 13:39:46;;;;;;;;;;;;;;;-145.06;0.00;60892.56;4900644;28;20007;-86
2022/04/04 13:42:25;;;;;;;;;;;;;;;-145.06;0.00;60892.56;4936935;28;19963;-85
2022/04/04 13:45:06;;;;;;;;;;;;;;;-145.06;0.00;60892.56;4929481;28;19916;-86
2022/04/04 13:47:44;;;;;;;;;;;;;;;-145.06;0.00;60892.56;4921216;28;20002;-86
2022/04/04 13:50:23;;;;;;;;;;;;;;;-145.06;0.00;60892.56;4923881;28;20393;-86
2022/04/04 13:53:02;;;;;;;;;;;;;;;-145.06;0.00;60892.56;4894962;28;19912;-86
2022/04/04 13:55:41;;;;;;;;;;;;;;;-145.06;0.00;60892.56;4910150;28;19920;-86